createdAt,value
2022-12-08T00:09:57.654Z,2.5
2022-12-08T00:20:04.555Z,2.44
2022-12-08T00:25:19.361Z,2.37
2022-12-08T00:35:49.183Z,2.25
2022-12-08T00:40:57.783Z,2.19
2022-12-08T00:49:06.382Z,2.12
2022-12-08T00:59:16.021Z,2.12
2022-12-08T01:04:24.439Z,2.12
2022-12-08T01:09:33.814Z,2.12
2022-12-08T01:29:36.140Z,2.06
2022-12-08T01:34:45.324Z,2.06
2022-12-08T01:39:54.672Z,2
2022-12-08T01:45:03.937Z,1.94
2022-12-08T01:55:22.746Z,1.94
2022-12-08T02:00:32.032Z,1.87
2022-12-08T02:05:41.469Z,1.87
2022-12-08T02:10:50.854Z,1.81
2022-12-08T02:16:00.367Z,1.81
2022-12-08T02:26:10.088Z,1.75
2022-12-08T02:31:19.687Z,1.75
2022-12-08T02:36:28.962Z,1.75
2022-12-08T02:41:38.323Z,1.75
2022-12-08T02:46:47.615Z,1.75
2022-12-08T02:51:56.846Z,1.75
2022-12-08T02:57:05.978Z,1.69
2022-12-08T03:02:15.348Z,1.69
2022-12-08T03:07:24.412Z,1.69
2022-12-08T03:12:33.819Z,1.62
2022-12-08T03:22:40.762Z,1.62
2022-12-08T03:27:50.173Z,1.62
2022-12-08T03:32:59.638Z,1.56
2022-12-08T03:38:11.204Z,1.5
2022-12-08T03:48:29.280Z,1.5
2022-12-08T03:53:38.598Z,1.5
2022-12-08T03:58:47.980Z,1.5
2022-12-08T04:03:57.353Z,1.5
2022-12-08T04:09:06.882Z,1.5
2022-12-08T04:14:16.195Z,1.5
2022-12-08T04:19:25.330Z,1.5
2022-12-08T04:24:34.762Z,1.5
2022-12-08T04:29:44.124Z,1.56
2022-12-08T04:34:53.316Z,1.5
2022-12-08T04:40:03.011Z,1.5
2022-12-08T04:45:12.201Z,1.5
2022-12-08T04:50:21.536Z,1.44
2022-12-08T04:55:30.889Z,1.44
2022-12-08T05:00:43.130Z,1.44
2022-12-08T05:05:52.578Z,1.44
2022-12-08T05:16:02.880Z,1.5
2022-12-08T05:21:12.437Z,1.5
2022-12-08T05:26:21.699Z,1.5
2022-12-08T05:46:23.944Z,1.44
2022-12-08T05:51:33.154Z,1.44
2022-12-08T05:56:42.502Z,1.44
2022-12-08T06:01:51.868Z,1.37
2022-12-08T06:07:01.094Z,1.37
2022-12-08T06:12:10.562Z,1.37
2022-12-08T06:17:19.795Z,1.37
2022-12-08T06:22:29.045Z,1.37
2022-12-08T06:37:34.271Z,1.37
2022-12-08T06:42:43.600Z,1.44
2022-12-08T06:47:52.920Z,1.5
2022-12-08T06:53:05.350Z,1.5
2022-12-08T06:58:11.816Z,1.5
2022-12-08T07:03:21.352Z,1.56
2022-12-08T07:08:31.460Z,1.56
2022-12-08T07:18:37.707Z,1.62
2022-12-08T07:23:49.266Z,1.69
2022-12-08T07:28:59.579Z,1.75
2022-12-08T07:34:09.066Z,1.75
2022-12-08T07:39:21.897Z,1.81
2022-12-08T07:44:31.310Z,1.81
2022-12-08T07:49:40.710Z,1.87
2022-12-08T07:59:47.774Z,1.87
2022-12-08T08:10:06.732Z,1.94
2022-12-08T08:15:19.102Z,2
2022-12-08T08:25:38.139Z,2.19
2022-12-08T08:30:47.612Z,2.25
2022-12-08T08:35:57.113Z,2.31
2022-12-08T08:41:06.509Z,2.37
2022-12-08T08:46:16.117Z,2.37
2022-12-08T08:51:25.425Z,2.44
2022-12-08T08:56:34.992Z,2.5
2022-12-08T09:01:44.492Z,2.56
2022-12-08T09:06:53.777Z,2.69
2022-12-08T09:12:03.085Z,2.69
2022-12-08T09:22:22.112Z,2.94
2022-12-08T09:32:41.112Z,3.19
2022-12-08T09:37:50.510Z,3.19
2022-12-08T09:42:59.824Z,3.31
2022-12-08T09:48:09.474Z,3.69
2022-12-08T09:53:19.215Z,4
2022-12-08T09:58:28.615Z,4.19
2022-12-08T10:03:38.114Z,4.44
2022-12-08T10:13:56.001Z,4.62
2022-12-08T10:19:05.184Z,4.69
2022-12-08T10:24:14.057Z,4.5
2022-12-08T10:29:23.080Z,4.56
2022-12-08T10:34:31.963Z,4.62
2022-12-08T10:39:40.861Z,4.62
2022-12-08T10:49:58.963Z,4.25
2022-12-08T10:55:08.004Z,4.5
2022-12-08T11:00:17.234Z,4.37
2022-12-08T11:05:26.188Z,4.44
2022-12-08T11:10:35.168Z,4.62
2022-12-08T11:15:44.067Z,4.56
2022-12-08T11:30:49.631Z,4.75
2022-12-08T11:41:12.422Z,4.56
2022-12-08T11:46:16.652Z,4.44
2022-12-08T11:51:25.565Z,4.56
2022-12-08T11:56:34.645Z,4.75
2022-12-08T12:06:57.555Z,4.75
2022-12-08T12:11:51.064Z,4.81
2022-12-08T12:17:03.038Z,4.94
2022-12-08T12:22:12.208Z,4.81
2022-12-08T12:27:21.279Z,4.87
2022-12-08T12:37:39.393Z,5
2022-12-08T12:42:48.289Z,5
2022-12-08T12:47:57.360Z,5
2022-12-08T12:53:10.762Z,4.81
2022-12-08T12:58:14.976Z,4.62
2022-12-08T13:03:24.057Z,4.69
2022-12-08T13:08:33.127Z,4.87
2022-12-08T13:13:42.164Z,4.94
2022-12-08T13:18:54.128Z,5.31
2022-12-08T13:24:03.573Z,5.5
2022-12-08T13:29:12.210Z,5.12
2022-12-08T13:34:20.978Z,4.62
2022-12-08T13:39:29.911Z,4.5
2022-12-08T14:00:07.256Z,4.81
2022-12-08T14:05:35.122Z,4.62
2022-12-08T14:15:21.701Z,4.12
2022-12-08T14:20:30.509Z,3.94
2022-12-08T14:25:39.441Z,3.75
2022-12-08T14:30:48.487Z,3.69
2022-12-08T14:35:57.443Z,3.56
2022-12-08T14:41:06.399Z,3.31
2022-12-08T14:46:15.260Z,3.31
2022-12-08T14:51:24.186Z,3.31
2022-12-08T15:01:42.397Z,3.25
2022-12-08T15:06:51.280Z,3.25
2022-12-08T15:12:00.343Z,3.25
2022-12-08T15:17:09.428Z,3.19
2022-12-08T15:22:18.473Z,3.12
2022-12-08T15:27:27.410Z,2.94
2022-12-08T15:32:36.606Z,2.87
2022-12-08T15:42:54.637Z,2.81
2022-12-08T15:48:03.456Z,2.75
2022-12-08T15:53:12.518Z,2.75
2022-12-08T15:58:52.828Z,2.62
2022-12-08T16:08:49.299Z,2.5
2022-12-08T16:13:56.995Z,2.5
2022-12-08T16:18:57.559Z,2.44
2022-12-08T16:24:09.355Z,2.44
2022-12-08T16:29:15.739Z,2.44
2022-12-08T16:34:24.846Z,2.44
2022-12-08T16:39:33.711Z,2.5
2022-12-08T16:44:42.645Z,2.44
2022-12-08T16:49:51.770Z,2.5
2022-12-08T16:55:00.818Z,2.44
2022-12-08T17:00:09.823Z,2.44
2022-12-08T17:05:19.033Z,2.44
2022-12-08T17:10:28.008Z,2.44
2022-12-08T17:15:36.947Z,2.44
2022-12-08T17:20:48.886Z,2.44
2022-12-08T17:25:58.150Z,2.44
2022-12-08T17:31:07.120Z,2.37
2022-12-08T17:36:16.068Z,2.31
2022-12-08T17:41:25.090Z,2.25
2022-12-08T17:46:38.371Z,2.37
2022-12-08T17:51:43.062Z,2.37
2022-12-08T18:01:50.492Z,2.31
2022-12-08T18:06:59.418Z,2.31
2022-12-08T18:12:08.288Z,2.25
2022-12-08T18:17:20.143Z,2.25
2022-12-08T18:22:29.316Z,2.25
2022-12-08T18:27:42.839Z,2.25
2022-12-08T18:32:47.297Z,2.25
2022-12-08T18:42:54.854Z,2.19
2022-12-08T18:48:03.825Z,2.19
2022-12-08T18:53:15.718Z,2.12
2022-12-08T18:58:24.965Z,2.12
2022-12-08T19:03:33.864Z,2.12
2022-12-08T19:08:43.031Z,2.12
2022-12-08T19:13:52.102Z,2.06
2022-12-08T19:19:00.996Z,2.06
2022-12-08T19:24:09.945Z,2.12
2022-12-08T19:29:19.114Z,2.06
2022-12-08T19:34:28.146Z,2.06
2022-12-08T19:39:37.035Z,2.06
2022-12-08T19:44:46.004Z,2
2022-12-08T19:49:55.191Z,2
2022-12-08T19:55:04.001Z,1.94
2022-12-08T20:00:16.656Z,1.94
2022-12-08T20:05:21.801Z,1.87
2022-12-08T20:10:30.753Z,1.81
2022-12-08T20:15:39.700Z,1.81
2022-12-08T20:20:48.589Z,1.81
2022-12-08T20:25:57.584Z,1.81
2022-12-08T20:31:06.738Z,1.81
2022-12-08T20:41:25.059Z,1.81
2022-12-08T20:51:43.263Z,1.81
2022-12-08T21:01:50.523Z,1.81
2022-12-08T21:06:59.715Z,1.75
2022-12-08T21:17:17.765Z,1.75
2022-12-08T21:22:26.444Z,1.69
2022-12-08T21:27:35.459Z,1.62
2022-12-08T21:32:44.440Z,1.62
2022-12-08T21:37:53.305Z,1.56
2022-12-08T21:48:12.040Z,1.56
2022-12-08T21:53:20.193Z,1.56
2022-12-08T21:58:28.981Z,1.5
2022-12-08T22:03:38.356Z,1.5
2022-12-08T22:08:47.286Z,1.44
2022-12-08T22:13:56.078Z,1.44
2022-12-08T22:19:05.361Z,1.44
2022-12-08T22:24:14.479Z,1.44
2022-12-08T22:29:23.363Z,1.44
2022-12-08T22:34:32.336Z,1.44
2022-12-08T22:39:41.247Z,1.44
2022-12-08T22:44:50.196Z,1.44
2022-12-08T22:49:59.344Z,1.44
2022-12-08T22:55:08.141Z,1.37
2022-12-08T23:00:17.292Z,1.31
2022-12-08T23:05:26.353Z,1.31
2022-12-08T23:10:35.345Z,1.31
2022-12-08T23:15:44.391Z,1.31
2022-12-08T23:20:53.358Z,1.25
2022-12-08T23:26:02.271Z,1.25
2022-12-08T23:31:11.494Z,1.31
2022-12-08T23:36:20.475Z,1.25
2022-12-08T23:41:29.413Z,1.25
2022-12-08T23:46:38.142Z,1.19
2022-12-08T23:51:47.046Z,1.19
2022-12-08T23:56:55.938Z,1.12
